createdAt,value
2019-04-27T00:01:19.465Z,0.00
2019-04-27T00:03:19.681Z,0.00
2019-04-27T00:05:19.686Z,0.00
2019-04-27T00:07:21.184Z,0.00
2019-04-27T00:09:19.613Z,0.00
2019-04-27T00:11:19.692Z,0.00
2019-04-27T00:13:19.435Z,0.00
2019-04-27T00:15:19.604Z,0.00
2019-04-27T00:17:40.497Z,0.00
2019-04-27T00:19:19.566Z,0.00
2019-04-27T00:21:19.314Z,0.00
2019-04-27T00:23:19.588Z,0.00
2019-04-27T00:25:19.510Z,0.00
2019-04-27T00:27:19.412Z,0.00
2019-04-27T00:29:19.728Z,0.00
2019-04-27T00:31:19.738Z,0.00
2019-04-27T00:33:19.756Z,0.00
2019-04-27T00:35:19.483Z,0.00
2019-04-27T00:37:19.878Z,0.00
2019-04-27T00:39:19.636Z,0.00
2019-04-27T00:41:19.711Z,0.00
2019-04-27T00:43:19.711Z,0.00
2019-04-27T00:45:19.638Z,0.00
2019-04-27T00:47:19.436Z,0.00
2019-04-27T00:49:20.309Z,0.00
2019-04-27T00:51:19.662Z,0.00
2019-04-27T00:53:19.636Z,0.61
2019-04-27T00:55:19.557Z,0.69
2019-04-27T00:57:19.894Z,1.18
2019-04-27T00:59:19.606Z,0.91
2019-04-27T01:01:19.509Z,0.91
2019-04-27T01:03:19.507Z,0.86
2019-04-27T01:05:19.616Z,0.61
2019-04-27T01:07:19.550Z,0.74
2019-04-27T01:09:19.766Z,1.19
2019-04-27T01:11:19.710Z,1.12
2019-04-27T01:13:19.531Z,1.50
2019-04-27T01:15:19.596Z,0.82
2019-04-27T01:17:19.607Z,0.91
2019-04-27T01:19:19.418Z,0.17
2019-04-27T01:21:19.502Z,0.59
2019-04-27T01:23:19.438Z,0.40
2019-04-27T01:25:19.867Z,0.26
2019-04-27T01:27:19.968Z,0.28
2019-04-27T01:29:19.782Z,0.57
2019-04-27T01:31:19.547Z,0.94
2019-04-27T01:33:19.835Z,0.29
2019-04-27T01:35:19.519Z,0.51
2019-04-27T01:37:21.101Z,0.05
2019-04-27T01:39:19.553Z,0.51
2019-04-27T01:41:19.781Z,0.68
2019-04-27T01:43:19.861Z,0.37
2019-04-27T01:45:19.423Z,0.54
2019-04-27T01:47:19.438Z,0.85
2019-04-27T01:49:19.631Z,0.41
2019-04-27T01:51:21.088Z,0.20
2019-04-27T01:53:19.620Z,0.78
2019-04-27T01:55:19.571Z,0.29
2019-04-27T01:57:19.775Z,0.00
2019-04-27T01:59:19.982Z,0.24
2019-04-27T02:01:19.606Z,0.14
2019-04-27T02:03:19.841Z,0.58
2019-04-27T02:05:19.628Z,0.07
2019-04-27T02:07:19.499Z,0.12
2019-04-27T02:09:19.711Z,0.11
2019-04-27T02:11:19.719Z,0.15
2019-04-27T02:13:19.731Z,0.40
2019-04-27T02:15:19.535Z,0.22
2019-04-27T02:17:19.556Z,0.05
2019-04-27T02:19:19.942Z,0.00
2019-04-27T02:21:19.579Z,0.00
2019-04-27T02:23:19.793Z,0.07
2019-04-27T02:25:21.144Z,0.11
2019-04-27T02:27:19.712Z,0.26
2019-04-27T02:29:19.826Z,0.21
2019-04-27T02:31:19.639Z,0.04
2019-04-27T02:33:20.389Z,0.01
2019-04-27T02:35:19.409Z,0.00
2019-04-27T02:37:20.177Z,0.02
2019-04-27T02:39:21.601Z,0.05
2019-04-27T02:41:19.952Z,0.00
2019-04-27T02:43:19.650Z,0.00
2019-04-27T02:45:22.015Z,0.00
2019-04-27T02:47:20.748Z,0.00
2019-04-27T02:49:20.221Z,0.01
2019-04-27T02:51:20.336Z,0.37
2019-04-27T02:53:19.792Z,0.23
2019-04-27T02:55:19.885Z,0.17
2019-04-27T02:57:20.128Z,0.07
2019-04-27T02:59:19.947Z,0.01
2019-04-27T03:01:20.212Z,0.28
2019-04-27T03:03:20.419Z,0.65
2019-04-27T03:05:19.840Z,0.25
2019-04-27T03:07:20.255Z,0.22
2019-04-27T03:09:20.535Z,0.22
2019-04-27T03:11:20.566Z,0.08
2019-04-27T03:13:20.191Z,0.01
2019-04-27T03:15:22.770Z,0.00
2019-04-27T03:17:22.555Z,0.00
2019-04-27T03:19:21.881Z,0.00
2019-04-27T03:21:20.255Z,0.00
2019-04-27T03:23:20.084Z,0.00
2019-04-27T03:25:20.211Z,0.00
2019-04-27T03:27:20.246Z,0.00
2019-04-27T03:29:22.820Z,0.00
2019-04-27T03:31:21.472Z,0.00
2019-04-27T03:33:22.247Z,0.00
2019-04-27T03:35:22.831Z,0.00
2019-04-27T03:37:20.363Z,0.00
2019-04-27T03:39:20.130Z,0.00
2019-04-27T03:41:19.969Z,0.00
2019-04-27T03:43:20.165Z,0.00
2019-04-27T03:45:20.237Z,0.00
2019-04-27T03:47:19.944Z,0.00
2019-04-27T03:49:31.894Z,0.00
2019-04-27T03:51:20.117Z,0.00
2019-04-27T03:53:22.691Z,0.00
2019-04-27T03:55:19.983Z,0.00
2019-04-27T03:57:19.999Z,0.00
2019-04-27T03:59:19.708Z,0.00
2019-04-27T04:01:20.418Z,0.00
2019-04-27T04:03:20.373Z,0.00
2019-04-27T04:05:19.910Z,0.00
2019-04-27T04:07:19.832Z,0.00
2019-04-27T04:09:19.801Z,0.00
2019-04-27T04:11:19.970Z,0.00
2019-04-27T04:13:22.438Z,0.00
2019-04-27T04:15:20.073Z,0.00
2019-04-27T04:17:20.419Z,0.00
2019-04-27T04:19:19.965Z,0.00
2019-04-27T04:21:19.553Z,0.00
2019-04-27T04:23:20.385Z,0.00
2019-04-27T04:25:20.076Z,0.00
2019-04-27T04:27:20.148Z,0.00
2019-04-27T04:29:20.241Z,0.00
2019-04-27T04:31:20.967Z,0.00
2019-04-27T04:33:20.568Z,0.00
2019-04-27T04:35:21.175Z,0.00
2019-04-27T04:37:19.858Z,0.00
2019-04-27T04:39:19.986Z,0.00
2019-04-27T04:41:20.070Z,0.00
2019-04-27T04:43:20.125Z,0.00
2019-04-27T04:45:20.354Z,0.00
2019-04-27T04:47:19.725Z,0.00
2019-04-27T04:49:19.728Z,0.00
2019-04-27T04:51:20.160Z,0.00
2019-04-27T04:53:20.502Z,0.00
2019-04-27T04:55:20.446Z,0.00
2019-04-27T04:57:21.956Z,0.00
2019-04-27T04:59:20.295Z,0.00
2019-04-27T05:01:19.760Z,0.00
2019-04-27T05:03:21.894Z,0.00
2019-04-27T05:05:19.617Z,0.00
2019-04-27T05:07:19.836Z,0.00
2019-04-27T05:09:19.595Z,0.00
2019-04-27T05:11:19.699Z,0.00
2019-04-27T05:13:19.867Z,0.00
2019-04-27T05:15:20.706Z,0.00
2019-04-27T05:17:19.726Z,0.00
2019-04-27T05:19:19.523Z,0.23
2019-04-27T05:21:19.826Z,0.79
2019-04-27T05:23:19.565Z,0.85
2019-04-27T05:25:19.626Z,1.57
2019-04-27T05:27:19.762Z,1.29
2019-04-27T05:29:19.871Z,1.27
2019-04-27T05:31:19.778Z,0.87
2019-04-27T05:33:19.674Z,1.13
2019-04-27T05:35:19.894Z,1.17
2019-04-27T05:37:27.685Z,0.72
2019-04-27T05:39:24.759Z,0.62
2019-04-27T05:41:19.733Z,1.68
2019-04-27T05:43:19.594Z,0.60
2019-04-27T05:45:22.714Z,0.88
2019-04-27T05:47:19.763Z,0.89
2019-04-27T05:49:20.641Z,1.99
2019-04-27T05:51:19.787Z,2.01
2019-04-27T05:53:19.801Z,1.43
2019-04-27T05:55:19.806Z,1.14
2019-04-27T05:57:19.640Z,0.85
2019-04-27T05:59:20.035Z,0.93
2019-04-27T06:01:19.840Z,1.37
2019-04-27T06:03:21.046Z,1.60
2019-04-27T06:05:22.572Z,0.94
2019-04-27T06:07:19.632Z,0.64
2019-04-27T06:09:20.095Z,0.80
2019-04-27T06:11:19.906Z,1.11
2019-04-27T06:13:19.846Z,0.35
2019-04-27T06:15:19.940Z,0.59
2019-04-27T06:17:19.887Z,0.80
2019-04-27T06:19:19.950Z,1.12
2019-04-27T06:21:19.971Z,1.72
2019-04-27T06:23:21.020Z,1.78
2019-04-27T06:25:21.465Z,1.52
2019-04-27T06:27:21.051Z,1.21
2019-04-27T06:29:19.825Z,1.59
2019-04-27T06:31:19.824Z,1.78
2019-04-27T06:33:29.534Z,1.36
2019-04-27T06:35:20.046Z,1.66
2019-04-27T06:37:21.612Z,1.53
2019-04-27T06:39:20.587Z,1.10
2019-04-27T06:41:19.853Z,1.35
2019-04-27T06:43:19.985Z,1.01
2019-04-27T06:45:20.087Z,0.84
2019-04-27T06:47:19.986Z,2.52
2019-04-27T06:49:20.128Z,1.35
2019-04-27T06:51:19.732Z,1.58
2019-04-27T06:53:19.874Z,2.42
2019-04-27T06:55:19.856Z,1.86
2019-04-27T06:57:19.796Z,2.28
2019-04-27T06:59:19.691Z,1.00
2019-04-27T07:01:19.682Z,1.01
2019-04-27T07:03:19.920Z,1.77
2019-04-27T07:05:20.444Z,1.20
2019-04-27T07:07:19.978Z,1.75
2019-04-27T07:09:20.242Z,1.65
2019-04-27T07:11:19.889Z,1.38
2019-04-27T07:13:19.785Z,2.62
2019-04-27T07:15:20.526Z,2.33
2019-04-27T07:17:20.002Z,1.45
2019-04-27T07:19:19.894Z,2.28
2019-04-27T07:21:24.723Z,2.03
2019-04-27T07:23:20.921Z,1.31
2019-04-27T07:25:20.039Z,1.45
2019-04-27T07:27:21.247Z,2.04
2019-04-27T07:29:19.848Z,3.07
2019-04-27T07:31:19.742Z,3.74
2019-04-27T07:33:19.878Z,4.06
2019-04-27T07:35:19.980Z,2.73
2019-04-27T07:37:19.974Z,3.30
2019-04-27T07:39:20.009Z,1.78
2019-04-27T07:41:19.989Z,2.00
2019-04-27T07:43:21.162Z,3.01
2019-04-27T07:45:19.840Z,1.40
2019-04-27T07:47:19.967Z,1.44
2019-04-27T07:49:20.005Z,1.11
2019-04-27T07:51:31.465Z,2.30
2019-04-27T07:53:19.888Z,2.23
2019-04-27T07:55:20.403Z,0.79
2019-04-27T07:57:20.082Z,1.16
2019-04-27T07:59:19.711Z,2.18
2019-04-27T08:01:19.634Z,2.04
2019-04-27T08:03:19.948Z,2.69
2019-04-27T08:05:19.751Z,1.55
2019-04-27T08:07:19.968Z,1.88
2019-04-27T08:09:20.088Z,2.87
2019-04-27T08:11:20.094Z,2.20
2019-04-27T08:13:19.768Z,3.65
2019-04-27T08:15:19.808Z,1.98
2019-04-27T08:17:19.821Z,3.33
2019-04-27T08:19:19.832Z,1.50
2019-04-27T08:21:19.929Z,1.36
2019-04-27T08:23:20.028Z,2.38
2019-04-27T08:25:20.033Z,2.86
2019-04-27T08:27:19.886Z,3.81
2019-04-27T08:29:20.303Z,1.68
2019-04-27T08:31:20.316Z,2.37
2019-04-27T08:33:19.812Z,3.14
2019-04-27T08:35:20.042Z,1.94
2019-04-27T08:37:20.164Z,2.46
2019-04-27T08:39:20.055Z,2.45
2019-04-27T08:41:21.206Z,2.72
2019-04-27T08:43:20.279Z,2.66
2019-04-27T08:45:20.224Z,2.62
2019-04-27T08:47:19.900Z,4.07
2019-04-27T08:49:19.914Z,2.18
2019-04-27T08:51:19.936Z,3.30
2019-04-27T08:53:19.769Z,2.60
2019-04-27T08:55:20.043Z,1.96
2019-04-27T08:57:19.845Z,3.14
2019-04-27T08:59:20.077Z,2.67
2019-04-27T09:01:20.722Z,1.46
2019-04-27T09:03:19.993Z,2.55
2019-04-27T09:05:21.175Z,1.87
2019-04-27T09:07:19.816Z,1.76
2019-04-27T09:09:20.032Z,2.26
2019-04-27T09:11:20.629Z,1.58
2019-04-27T09:13:20.249Z,1.99
2019-04-27T09:15:20.057Z,2.04
2019-04-27T09:17:19.996Z,3.57
2019-04-27T09:19:20.093Z,2.11
2019-04-27T09:21:19.730Z,2.77
2019-04-27T09:23:19.892Z,2.20
2019-04-27T09:25:20.021Z,3.08
2019-04-27T09:27:20.049Z,2.02
2019-04-27T09:29:22.012Z,1.55
2019-04-27T09:31:20.260Z,1.30
2019-04-27T09:33:22.250Z,2.89
2019-04-27T09:35:20.076Z,2.47
2019-04-27T09:37:20.089Z,1.90
2019-04-27T09:39:20.203Z,3.45
2019-04-27T09:41:19.912Z,2.04
2019-04-27T09:43:20.018Z,0.99
2019-04-27T09:45:20.136Z,2.05
2019-04-27T09:47:19.901Z,2.24
2019-04-27T09:49:20.154Z,2.92
2019-04-27T09:51:19.961Z,3.03
2019-04-27T09:53:20.078Z,2.30
2019-04-27T09:55:19.763Z,2.07
2019-04-27T09:57:20.207Z,1.22
2019-04-27T09:59:19.821Z,1.82
2019-04-27T10:01:19.910Z,3.04
2019-04-27T10:03:20.135Z,2.63
2019-04-27T10:05:20.152Z,2.06
2019-04-27T10:07:20.469Z,4.52
2019-04-27T10:09:19.815Z,2.41
2019-04-27T10:11:20.004Z,1.49
2019-04-27T10:13:20.097Z,2.56
2019-04-27T10:15:20.007Z,2.58
2019-04-27T10:17:20.123Z,1.80
2019-04-27T10:19:28.681Z,1.46
2019-04-27T10:21:19.848Z,0.72
2019-04-27T10:23:19.874Z,2.56
2019-04-27T10:25:20.371Z,1.46
2019-04-27T10:27:20.130Z,1.36
2019-04-27T10:29:20.095Z,1.53
2019-04-27T10:31:19.998Z,1.39
2019-04-27T10:33:19.894Z,1.82
2019-04-27T10:35:20.020Z,1.69
2019-04-27T10:37:20.139Z,2.02
2019-04-27T10:39:19.838Z,1.45
2019-04-27T10:41:19.815Z,1.84
2019-04-27T10:43:20.078Z,1.18
2019-04-27T10:45:20.005Z,2.11
2019-04-27T10:47:20.194Z,2.09
2019-04-27T10:49:20.003Z,1.62
2019-04-27T10:51:20.010Z,2.24
2019-04-27T10:53:19.792Z,2.89
2019-04-27T10:55:20.255Z,1.83
2019-04-27T10:57:20.067Z,1.85
2019-04-27T10:59:19.958Z,3.49
2019-04-27T11:01:20.173Z,2.64
2019-04-27T11:03:19.975Z,2.46
2019-04-27T11:05:20.193Z,3.82
2019-04-27T11:07:19.906Z,2.31
2019-04-27T11:09:20.019Z,2.60
2019-04-27T11:11:20.242Z,3.32
2019-04-27T11:13:20.001Z,2.30
2019-04-27T11:15:20.369Z,2.95
2019-04-27T11:17:20.265Z,2.90
2019-04-27T11:19:20.592Z,3.77
2019-04-27T11:21:20.407Z,1.94
2019-04-27T11:23:20.269Z,3.42
2019-04-27T11:25:20.519Z,3.33
2019-04-27T11:27:20.119Z,3.36
2019-04-27T11:29:19.956Z,2.53
2019-04-27T11:31:20.142Z,1.60
2019-04-27T11:33:20.162Z,2.55
2019-04-27T11:35:20.476Z,2.16
2019-04-27T11:37:20.184Z,2.90
2019-04-27T11:39:21.257Z,2.77
2019-04-27T11:41:20.507Z,3.10
2019-04-27T11:43:20.122Z,2.95
2019-04-27T11:45:20.636Z,3.64
2019-04-27T11:47:20.342Z,3.59
2019-04-27T11:49:20.558Z,3.15
2019-04-27T11:51:20.368Z,2.21
2019-04-27T11:53:23.068Z,1.99
2019-04-27T11:55:20.512Z,2.88
2019-04-27T11:57:20.405Z,1.86
2019-04-27T11:59:20.311Z,2.17
2019-04-27T12:01:20.530Z,2.53
2019-04-27T12:03:20.460Z,2.86
2019-04-27T12:05:20.652Z,2.06
2019-04-27T12:07:20.562Z,1.25
2019-04-27T12:09:20.585Z,0.90
2019-04-27T12:11:20.590Z,2.26
2019-04-27T12:13:20.395Z,1.97
2019-04-27T12:15:20.421Z,1.52
2019-04-27T12:17:20.310Z,1.51
2019-04-27T12:19:20.435Z,2.19
2019-04-27T12:21:20.318Z,2.40
2019-04-27T12:23:32.771Z,2.41
2019-04-27T12:25:20.565Z,1.58
2019-04-27T12:27:20.582Z,1.22
2019-04-27T12:29:20.792Z,1.40
2019-04-27T12:31:20.547Z,1.29
2019-04-27T12:33:20.092Z,1.18
2019-04-27T12:35:20.442Z,2.22
2019-04-27T12:37:20.119Z,2.40
2019-04-27T12:39:20.326Z,2.00
2019-04-27T12:41:20.459Z,1.51
2019-04-27T12:43:20.525Z,2.08
2019-04-27T12:45:20.581Z,1.78
2019-04-27T12:47:21.948Z,0.83
2019-04-27T12:49:20.532Z,2.62
2019-04-27T12:51:21.055Z,1.06
2019-04-27T12:53:20.623Z,0.85
2019-04-27T12:55:20.641Z,2.84
2019-04-27T12:57:20.923Z,2.54
2019-04-27T12:59:20.572Z,2.19
2019-04-27T13:01:20.681Z,2.36
2019-04-27T13:03:20.484Z,1.26
2019-04-27T13:05:20.703Z,2.00
2019-04-27T13:07:20.502Z,1.41
2019-04-27T13:09:20.515Z,1.42
2019-04-27T13:11:22.855Z,1.76
2019-04-27T13:13:20.131Z,2.41
2019-04-27T13:15:20.650Z,1.83
2019-04-27T13:17:20.262Z,2.00
2019-04-27T13:19:20.691Z,1.36
2019-04-27T13:21:20.952Z,2.20
2019-04-27T13:23:20.614Z,3.73
2019-04-27T13:25:20.619Z,3.41
2019-04-27T13:27:20.629Z,1.84
2019-04-27T13:29:20.632Z,2.91
2019-04-27T13:31:20.650Z,1.77
2019-04-27T13:33:20.599Z,2.61
2019-04-27T13:35:20.261Z,1.70
2019-04-27T13:37:20.613Z,1.00
2019-04-27T13:39:20.093Z,1.11
2019-04-27T13:41:30.474Z,2.43
2019-04-27T13:43:20.003Z,2.29
2019-04-27T13:45:20.118Z,1.82
2019-04-27T13:47:20.749Z,1.08
2019-04-27T13:49:20.339Z,1.80
2019-04-27T13:51:20.575Z,1.55
2019-04-27T13:53:20.265Z,1.56
2019-04-27T13:55:20.453Z,1.60
2019-04-27T13:57:20.471Z,0.86
2019-04-27T13:59:21.865Z,0.85
2019-04-27T14:01:20.725Z,1.46
2019-04-27T14:03:21.073Z,1.54
2019-04-27T14:05:20.741Z,1.74
2019-04-27T14:07:20.758Z,1.16
2019-04-27T14:09:20.562Z,1.88
2019-04-27T14:11:20.370Z,1.38
2019-04-27T14:13:20.479Z,1.72
2019-04-27T14:15:20.599Z,0.35
2019-04-27T14:17:20.375Z,0.19
2019-04-27T14:19:20.519Z,1.84
2019-04-27T14:21:21.208Z,1.35
2019-04-27T14:23:20.443Z,0.44
2019-04-27T14:25:20.592Z,1.14
2019-04-27T14:27:20.672Z,1.32
2019-04-27T14:29:20.368Z,2.08
2019-04-27T14:31:20.587Z,2.15
2019-04-27T14:33:20.395Z,2.17
2019-04-27T14:35:23.336Z,2.32
2019-04-27T14:37:20.298Z,1.77
2019-04-27T14:39:20.353Z,0.37
2019-04-27T14:41:20.391Z,0.06
2019-04-27T14:43:20.492Z,1.28
2019-04-27T14:45:20.582Z,0.73
2019-04-27T14:47:20.577Z,0.01
2019-04-27T14:49:20.331Z,0.07
2019-04-27T14:51:20.402Z,0.30
2019-04-27T14:53:20.619Z,0.36
2019-04-27T14:55:20.319Z,1.10
2019-04-27T14:57:23.095Z,0.99
2019-04-27T14:59:20.247Z,0.62
2019-04-27T15:01:21.687Z,0.07
2019-04-27T15:03:20.474Z,0.86
2019-04-27T15:05:21.210Z,0.31
2019-04-27T15:07:20.387Z,0.42
2019-04-27T15:09:21.117Z,0.00
2019-04-27T15:11:20.384Z,0.04
2019-04-27T15:13:20.227Z,0.00
2019-04-27T15:15:23.225Z,0.02
2019-04-27T15:17:23.234Z,0.76
2019-04-27T15:19:20.568Z,0.31
2019-04-27T15:21:20.487Z,0.31
2019-04-27T15:23:20.491Z,1.58
2019-04-27T15:25:20.414Z,0.74
2019-04-27T15:27:20.622Z,1.24
2019-04-27T15:29:24.577Z,1.34
2019-04-27T15:31:26.153Z,0.83
2019-04-27T15:33:20.549Z,0.16
2019-04-27T15:35:21.598Z,0.16
2019-04-27T15:37:20.367Z,0.87
2019-04-27T15:39:22.519Z,0.00
2019-04-27T15:41:20.497Z,0.07
2019-04-27T15:43:22.915Z,0.09
2019-04-27T15:45:24.153Z,0.42
2019-04-27T15:47:20.342Z,0.59
2019-04-27T15:49:20.746Z,0.26
2019-04-27T15:51:21.187Z,0.16
2019-04-27T15:53:20.361Z,0.61
2019-04-27T15:55:32.351Z,0.63
2019-04-27T15:57:21.772Z,0.67
2019-04-27T15:59:20.395Z,0.86
2019-04-27T16:01:20.817Z,0.59
2019-04-27T16:03:22.839Z,0.25
2019-04-27T16:05:23.583Z,0.08
2019-04-27T16:07:25.246Z,0.01
2019-04-27T16:09:25.379Z,0.20
2019-04-27T16:11:20.582Z,0.39
2019-04-27T16:13:20.574Z,0.21
2019-04-27T16:15:20.701Z,0.29
2019-04-27T16:17:20.706Z,0.69
2019-04-27T16:19:20.737Z,0.51
2019-04-27T16:21:20.724Z,0.63
2019-04-27T16:23:20.536Z,0.25
2019-04-27T16:25:23.596Z,0.68
2019-04-27T16:27:20.758Z,0.05
2019-04-27T16:29:23.003Z,0.14
2019-04-27T16:31:20.604Z,0.15
2019-04-27T16:33:23.519Z,0.31
2019-04-27T16:35:22.949Z,0.25
2019-04-27T16:37:22.429Z,0.22
2019-04-27T16:39:20.537Z,0.03
2019-04-27T16:41:20.429Z,0.46
2019-04-27T16:43:23.917Z,0.21
2019-04-27T16:45:22.949Z,0.37
2019-04-27T16:47:24.334Z,0.11
2019-04-27T16:49:20.786Z,0.09
2019-04-27T16:51:20.503Z,0.11
2019-04-27T16:53:20.622Z,0.89
2019-04-27T16:55:20.500Z,0.17
2019-04-27T16:57:20.646Z,0.04
2019-04-27T16:59:39.054Z,0.24
2019-04-27T17:01:20.693Z,0.35
2019-04-27T17:03:20.666Z,0.54
2019-04-27T17:05:20.416Z,0.43
2019-04-27T17:07:20.695Z,0.60
2019-04-27T17:09:20.799Z,1.06
2019-04-27T17:11:20.733Z,0.49
2019-04-27T17:13:20.541Z,1.41
2019-04-27T17:15:20.647Z,1.29
2019-04-27T17:17:21.059Z,0.56
2019-04-27T17:19:20.761Z,0.82
2019-04-27T17:21:23.050Z,0.67
2019-04-27T17:23:22.524Z,0.54
2019-04-27T17:25:23.315Z,0.57
2019-04-27T17:27:22.039Z,1.23
2019-04-27T17:29:20.813Z,0.55
2019-04-27T17:31:21.517Z,0.67
2019-04-27T17:33:21.154Z,0.14
2019-04-27T17:35:20.853Z,1.20
2019-04-27T17:37:20.659Z,1.21
2019-04-27T17:39:23.383Z,0.43
2019-04-27T17:41:20.408Z,0.71
2019-04-27T17:43:20.796Z,0.78
2019-04-27T17:45:21.673Z,1.76
2019-04-27T17:47:26.575Z,0.04
2019-04-27T17:49:20.834Z,0.10
2019-04-27T17:51:20.570Z,0.41
2019-04-27T17:53:20.772Z,0.70
2019-04-27T17:55:24.518Z,0.77
2019-04-27T17:57:22.234Z,1.57
2019-04-27T17:59:20.945Z,1.94
2019-04-27T18:01:23.395Z,1.28
2019-04-27T18:03:21.193Z,1.68
2019-04-27T18:05:20.727Z,0.91
2019-04-27T18:07:20.747Z,0.69
2019-04-27T18:09:21.970Z,0.36
2019-04-27T18:11:21.706Z,1.02
2019-04-27T18:13:25.370Z,0.44
2019-04-27T18:15:20.801Z,1.25
2019-04-27T18:17:20.898Z,1.44
2019-04-27T18:19:20.915Z,1.93
2019-04-27T18:21:20.815Z,1.47
2019-04-27T18:23:20.623Z,0.59
2019-04-27T18:25:22.025Z,1.28
2019-04-27T18:27:20.603Z,1.08
2019-04-27T18:29:22.836Z,1.49
2019-04-27T18:31:20.793Z,1.02
2019-04-27T18:33:20.687Z,0.76
2019-04-27T18:35:26.249Z,1.36
2019-04-27T18:37:24.420Z,0.71
2019-04-27T18:39:20.925Z,0.39
2019-04-27T18:41:22.051Z,0.24
2019-04-27T18:43:20.744Z,0.75
2019-04-27T18:45:21.167Z,0.37
2019-04-27T18:47:20.570Z,0.04
2019-04-27T18:49:22.631Z,0.01
2019-04-27T18:51:25.016Z,0.10
2019-04-27T18:53:24.235Z,0.04
2019-04-27T18:55:21.076Z,0.44
2019-04-27T18:57:20.726Z,0.00
2019-04-27T18:59:20.741Z,0.01
2019-04-27T19:01:20.742Z,0.00
2019-04-27T19:03:21.708Z,0.00
2019-04-27T19:05:20.768Z,0.00
2019-04-27T19:07:20.784Z,0.00
2019-04-27T19:09:20.688Z,0.00
2019-04-27T19:11:20.715Z,0.00
2019-04-27T19:13:20.769Z,0.40
2019-04-27T19:15:20.624Z,0.28
2019-04-27T19:17:20.637Z,0.41
2019-04-27T19:19:20.646Z,0.41
2019-04-27T19:21:20.609Z,0.01
2019-04-27T19:23:20.876Z,0.10
2019-04-27T19:25:20.889Z,0.26
2019-04-27T19:27:21.242Z,0.46
2019-04-27T19:29:20.706Z,0.50
2019-04-27T19:31:20.827Z,1.32
2019-04-27T19:33:22.258Z,0.83
2019-04-27T19:35:20.767Z,1.73
2019-04-27T19:37:20.852Z,0.72
2019-04-27T19:39:20.764Z,0.33
2019-04-27T19:41:20.889Z,1.60
2019-04-27T19:43:20.791Z,1.04
2019-04-27T19:45:21.141Z,0.17
2019-04-27T19:47:20.814Z,0.12
2019-04-27T19:49:20.751Z,0.00
2019-04-27T19:51:20.743Z,0.00
2019-04-27T19:53:20.751Z,0.41
2019-04-27T19:55:20.859Z,0.51
2019-04-27T19:57:31.919Z,1.00
2019-04-27T19:59:20.772Z,0.34
2019-04-27T20:01:20.811Z,0.10
2019-04-27T20:03:20.710Z,0.34
2019-04-27T20:05:20.658Z,0.20
2019-04-27T20:07:20.933Z,0.14
2019-04-27T20:09:20.741Z,0.11
2019-04-27T20:11:20.955Z,0.74
2019-04-27T20:13:22.003Z,0.10
2019-04-27T20:15:22.804Z,0.14
2019-04-27T20:17:22.272Z,0.10
2019-04-27T20:19:21.569Z,0.89
2019-04-27T20:21:21.070Z,0.95
2019-04-27T20:23:22.431Z,0.51
2019-04-27T20:25:21.312Z,0.56
2019-04-27T20:27:22.084Z,0.80
2019-04-27T20:29:21.770Z,0.83
2019-04-27T20:31:20.882Z,0.75
2019-04-27T20:33:21.116Z,0.92
2019-04-27T20:35:21.978Z,0.49
2019-04-27T20:37:21.111Z,0.72
2019-04-27T20:39:20.807Z,1.18
2019-04-27T20:41:21.862Z,0.32
2019-04-27T20:43:21.365Z,0.77
2019-04-27T20:45:20.570Z,0.58
2019-04-27T20:47:20.866Z,0.94
2019-04-27T20:49:20.868Z,0.76
2019-04-27T20:51:21.283Z,1.44
2019-04-27T20:53:20.952Z,0.83
2019-04-27T20:55:21.370Z,1.32
2019-04-27T20:57:21.643Z,1.72
2019-04-27T20:59:21.942Z,1.05
2019-04-27T21:01:20.533Z,0.61
2019-04-27T21:03:20.237Z,0.95
2019-04-27T21:05:21.095Z,0.83
2019-04-27T21:07:21.085Z,1.54
2019-04-27T21:09:21.329Z,1.57
2019-04-27T21:11:20.984Z,1.40
2019-04-27T21:13:20.270Z,0.99
2019-04-27T21:15:21.400Z,0.74
2019-04-27T21:17:21.799Z,2.07
2019-04-27T21:19:21.018Z,0.70
2019-04-27T21:21:20.194Z,0.81
2019-04-27T21:23:21.001Z,0.01
2019-04-27T21:25:20.466Z,0.84
2019-04-27T21:27:21.587Z,0.14
2019-04-27T21:29:20.984Z,0.38
2019-04-27T21:31:21.301Z,0.39
2019-04-27T21:33:21.506Z,0.01
2019-04-27T21:35:21.014Z,0.24
2019-04-27T21:37:20.350Z,0.16
2019-04-27T21:39:21.729Z,0.44
2019-04-27T21:41:20.869Z,0.92
2019-04-27T21:43:21.659Z,0.25
2019-04-27T21:45:21.761Z,0.91
2019-04-27T21:47:20.496Z,0.26
2019-04-27T21:49:21.102Z,0.33
2019-04-27T21:51:21.801Z,0.16
2019-04-27T21:53:21.186Z,0.01
2019-04-27T21:55:21.763Z,0.34
2019-04-27T21:57:21.027Z,0.70
2019-04-27T21:59:21.094Z,0.44
2019-04-27T22:01:21.595Z,0.25
2019-04-27T22:03:21.450Z,0.24
2019-04-27T22:05:21.052Z,0.14
2019-04-27T22:07:21.586Z,0.04
2019-04-27T22:09:20.314Z,0.67
2019-04-27T22:11:21.855Z,1.06
2019-04-27T22:13:22.359Z,0.47
2019-04-27T22:15:21.216Z,0.43
2019-04-27T22:17:20.404Z,0.05
2019-04-27T22:19:22.258Z,0.87
2019-04-27T22:21:21.595Z,0.54
2019-04-27T22:23:22.918Z,0.95
2019-04-27T22:25:21.717Z,0.37
2019-04-27T22:27:20.814Z,0.05
2019-04-27T22:29:22.109Z,0.18
2019-04-27T22:31:21.161Z,0.03
2019-04-27T22:33:21.438Z,0.00
2019-04-27T22:35:22.404Z,0.00
2019-04-27T22:37:21.318Z,0.00
2019-04-27T22:39:20.888Z,0.00
2019-04-27T22:41:21.338Z,0.00
2019-04-27T22:43:20.518Z,0.47
2019-04-27T22:45:20.441Z,0.15
2019-04-27T22:47:21.561Z,0.00
2019-04-27T22:49:21.093Z,0.00
2019-04-27T22:51:20.477Z,0.00
2019-04-27T22:53:20.572Z,0.00
2019-04-27T22:55:21.963Z,0.00
2019-04-27T22:57:20.784Z,0.00
2019-04-27T22:59:21.455Z,0.05
2019-04-27T23:01:20.521Z,0.00
2019-04-27T23:03:21.147Z,0.17
2019-04-27T23:05:20.956Z,0.07
2019-04-27T23:07:21.258Z,0.15
2019-04-27T23:09:21.866Z,0.96
2019-04-27T23:11:21.185Z,0.64
2019-04-27T23:13:21.352Z,0.20
2019-04-27T23:15:20.704Z,0.35
2019-04-27T23:17:20.307Z,0.02
2019-04-27T23:19:21.042Z,0.02
2019-04-27T23:21:20.921Z,0.81
2019-04-27T23:23:21.767Z,0.55
2019-04-27T23:25:20.505Z,0.11
2019-04-27T23:27:21.563Z,0.05
2019-04-27T23:29:21.387Z,1.14
2019-04-27T23:31:21.032Z,0.68
2019-04-27T23:33:21.112Z,0.39
2019-04-27T23:35:20.612Z,0.21
2019-04-27T23:37:20.523Z,0.01
2019-04-27T23:39:20.333Z,0.00
2019-04-27T23:41:20.545Z,0.00
2019-04-27T23:43:20.316Z,0.91
2019-04-27T23:45:20.672Z,0.36
2019-04-27T23:47:20.789Z,0.74
2019-04-27T23:49:20.267Z,0.48
2019-04-27T23:51:20.428Z,1.31
2019-04-27T23:53:21.871Z,1.11
2019-04-27T23:55:20.927Z,0.20
2019-04-27T23:57:21.786Z,0.01
2019-04-27T23:59:25.153Z,0.02
